sensor_id;sensor_type;location;lat;lon;timestamp;P1;durP1;ratioP1;P2;durP2;ratioP2
75639;SDS011;64233;51.486;6.332;2024-02-26T00:01:53;3.08;;;1.25;;
75639;SDS011;64233;51.486;6.332;2024-02-26T00:04:19;2.58;;;1.65;;
75639;SDS011;64233;51.486;6.332;2024-02-26T00:06:44;5.30;;;1.88;;
75639;SDS011;64233;51.486;6.332;2024-02-26T00:09:10;1.30;;;1.17;;
75639;SDS011;64233;51.486;6.332;2024-02-26T00:11:35;2.35;;;1.67;;
75639;SDS011;64233;51.486;6.332;2024-02-26T00:14:02;3.40;;;1.65;;
75639;SDS011;64233;51.486;6.332;2024-02-26T00:16:28;2.03;;;1.70;;
75639;SDS011;64233;51.486;6.332;2024-02-26T00:18:53;2.17;;;0.88;;
75639;SDS011;64233;51.486;6.332;2024-02-26T00:21:19;0.60;;;0.60;;
75639;SDS011;64233;51.486;6.332;2024-02-26T00:23:44;1.73;;;1.42;;
75639;SDS011;64233;51.486;6.332;2024-02-26T00:26:09;4.78;;;1.52;;
75639;SDS011;64233;51.486;6.332;2024-02-26T00:28:36;1.83;;;1.30;;
75639;SDS011;64233;51.486;6.332;2024-02-26T00:31:01;2.05;;;1.58;;
75639;SDS011;64233;51.486;6.332;2024-02-26T00:33:27;1.73;;;1.63;;
75639;SDS011;64233;51.486;6.332;2024-02-26T00:35:53;0.77;;;0.77;;
75639;SDS011;64233;51.486;6.332;2024-02-26T00:38:18;2.00;;;1.52;;
75639;SDS011;64233;51.486;6.332;2024-02-26T00:40:44;1.88;;;1.52;;
75639;SDS011;64233;51.486;6.332;2024-02-26T00:43:09;1.45;;;1.10;;
75639;SDS011;64233;51.486;6.332;2024-02-26T00:45:35;1.95;;;1.50;;
75639;SDS011;64233;51.486;6.332;2024-02-26T00:48:00;2.88;;;1.73;;
75639;SDS011;64233;51.486;6.332;2024-02-26T00:50:32;2.40;;;1.80;;
75639;SDS011;64233;51.486;6.332;2024-02-26T00:52:58;1.98;;;1.73;;
75639;SDS011;64233;51.486;6.332;2024-02-26T00:55:24;2.50;;;1.65;;
75639;SDS011;64233;51.486;6.332;2024-02-26T00:57:49;2.85;;;1.58;;
75639;SDS011;64233;51.486;6.332;2024-02-26T01:00:15;5.43;;;2.45;;
75639;SDS011;64233;51.486;6.332;2024-02-26T01:02:41;3.53;;;1.60;;
75639;SDS011;64233;51.486;6.332;2024-02-26T01:05:07;2.83;;;1.70;;
75639;SDS011;64233;51.486;6.332;2024-02-26T01:07:34;1.77;;;1.58;;
75639;SDS011;64233;51.486;6.332;2024-02-26T01:10:03;3.55;;;1.83;;
75639;SDS011;64233;51.486;6.332;2024-02-26T01:12:30;1.88;;;1.63;;
75639;SDS011;64233;51.486;6.332;2024-02-26T01:14:56;3.10;;;2.28;;
75639;SDS011;64233;51.486;6.332;2024-02-26T01:17:21;2.80;;;1.77;;
75639;SDS011;64233;51.486;6.332;2024-02-26T01:19:47;4.80;;;2.05;;
75639;SDS011;64233;51.486;6.332;2024-02-26T01:22:12;1.40;;;1.30;;
75639;SDS011;64233;51.486;6.332;2024-02-26T01:24:38;1.90;;;1.63;;
75639;SDS011;64233;51.486;6.332;2024-02-26T01:27:03;1.52;;;1.00;;
75639;SDS011;64233;51.486;6.332;2024-02-26T01:29:29;1.55;;;1.45;;
75639;SDS011;64233;51.486;6.332;2024-02-26T01:31:54;3.63;;;1.65;;
75639;SDS011;64233;51.486;6.332;2024-02-26T01:34:20;2.08;;;1.65;;
75639;SDS011;64233;51.486;6.332;2024-02-26T01:36:45;1.85;;;1.08;;
75639;SDS011;64233;51.486;6.332;2024-02-26T01:39:11;1.67;;;1.42;;
75639;SDS011;64233;51.486;6.332;2024-02-26T01:41:38;2.15;;;1.95;;
75639;SDS011;64233;51.486;6.332;2024-02-26T01:44:05;3.92;;;2.00;;
75639;SDS011;64233;51.486;6.332;2024-02-26T01:46:31;2.05;;;1.35;;
75639;SDS011;64233;51.486;6.332;2024-02-26T01:48:59;5.32;;;1.58;;
75639;SDS011;64233;51.486;6.332;2024-02-26T01:51:26;2.92;;;1.55;;
75639;SDS011;64233;51.486;6.332;2024-02-26T01:53:52;2.35;;;1.77;;
75639;SDS011;64233;51.486;6.332;2024-02-26T01:56:18;2.35;;;1.70;;
75639;SDS011;64233;51.486;6.332;2024-02-26T01:58:44;2.45;;;1.77;;
75639;SDS011;64233;51.486;6.332;2024-02-26T02:01:10;2.03;;;1.27;;
75639;SDS011;64233;51.486;6.332;2024-02-26T02:03:37;1.52;;;1.42;;
75639;SDS011;64233;51.486;6.332;2024-02-26T02:06:03;2.47;;;1.80;;
75639;SDS011;64233;51.486;6.332;2024-02-26T02:08:29;1.48;;;1.38;;
75639;SDS011;64233;51.486;6.332;2024-02-26T02:10:54;1.85;;;1.65;;
75639;SDS011;64233;51.486;6.332;2024-02-26T02:13:21;1.00;;;1.00;;
75639;SDS011;64233;51.486;6.332;2024-02-26T02:15:46;1.75;;;1.58;;
75639;SDS011;64233;51.486;6.332;2024-02-26T02:18:12;2.33;;;1.77;;
75639;SDS011;64233;51.486;6.332;2024-02-26T02:20:37;1.15;;;0.70;;
75639;SDS011;64233;51.486;6.332;2024-02-26T02:23:03;1.52;;;1.35;;
75639;SDS011;64233;51.486;6.332;2024-02-26T02:25:28;0.43;;;0.43;;
75639;SDS011;64233;51.486;6.332;2024-02-26T02:27:54;2.33;;;0.65;;
75639;SDS011;64233;51.486;6.332;2024-02-26T02:30:20;3.78;;;1.17;;
75639;SDS011;64233;51.486;6.332;2024-02-26T02:32:48;1.33;;;1.23;;
75639;SDS011;64233;51.486;6.332;2024-02-26T02:35:14;0.80;;;0.80;;
75639;SDS011;64233;51.486;6.332;2024-02-26T02:37:39;1.20;;;1.10;;
75639;SDS011;64233;51.486;6.332;2024-02-26T02:40:05;0.60;;;0.60;;
75639;SDS011;64233;51.486;6.332;2024-02-26T02:42:31;1.00;;;0.90;;
75639;SDS011;64233;51.486;6.332;2024-02-26T02:44:56;1.40;;;1.10;;
75639;SDS011;64233;51.486;6.332;2024-02-26T02:47:22;1.33;;;1.15;;
75639;SDS011;64233;51.486;6.332;2024-02-26T02:49:47;0.77;;;0.77;;
75639;SDS011;64233;51.486;6.332;2024-02-26T02:52:12;2.63;;;1.20;;
75639;SDS011;64233;51.486;6.332;2024-02-26T02:54:40;1.92;;;1.35;;
75639;SDS011;64233;51.486;6.332;2024-02-26T02:57:07;2.55;;;1.48;;
75639;SDS011;64233;51.486;6.332;2024-02-26T02:59:33;4.70;;;2.25;;
75639;SDS011;64233;51.486;6.332;2024-02-26T03:01:59;1.25;;;1.13;;
75639;SDS011;64233;51.486;6.332;2024-02-26T03:04:24;2.70;;;2.00;;
75639;SDS011;64233;51.486;6.332;2024-02-26T03:06:49;1.55;;;1.20;;
75639;SDS011;64233;51.486;6.332;2024-02-26T03:09:15;2.25;;;1.58;;
75639;SDS011;64233;51.486;6.332;2024-02-26T03:11:40;3.08;;;1.67;;
75639;SDS011;64233;51.486;6.332;2024-02-26T03:14:05;2.10;;;1.85;;
75639;SDS011;64233;51.486;6.332;2024-02-26T03:16:31;1.20;;;1.10;;
75639;SDS011;64233;51.486;6.332;2024-02-26T03:18:57;2.28;;;1.63;;
75639;SDS011;64233;51.486;6.332;2024-02-26T03:21:22;1.85;;;1.67;;
75639;SDS011;64233;51.486;6.332;2024-02-26T03:23:47;3.40;;;1.83;;
75639;SDS011;64233;51.486;6.332;2024-02-26T03:26:13;3.40;;;2.42;;
75639;SDS011;64233;51.486;6.332;2024-02-26T03:28:39;1.77;;;1.52;;
75639;SDS011;64233;51.486;6.332;2024-02-26T03:31:05;2.20;;;1.73;;
75639;SDS011;64233;51.486;6.332;2024-02-26T03:33:31;0.90;;;0.90;;
75639;SDS011;64233;51.486;6.332;2024-02-26T03:35:56;0.65;;;0.65;;
75639;SDS011;64233;51.486;6.332;2024-02-26T03:38:21;0.75;;;0.75;;
75639;SDS011;64233;51.486;6.332;2024-02-26T03:40:47;1.23;;;1.13;;
75639;SDS011;64233;51.486;6.332;2024-02-26T03:43:12;2.25;;;1.27;;
75639;SDS011;64233;51.486;6.332;2024-02-26T03:45:38;2.25;;;0.77;;
75639;SDS011;64233;51.486;6.332;2024-02-26T03:48:03;0.90;;;0.90;;
75639;SDS011;64233;51.486;6.332;2024-02-26T03:50:31;1.23;;;1.13;;
75639;SDS011;64233;51.486;6.332;2024-02-26T03:52:57;2.28;;;1.77;;
75639;SDS011;64233;51.486;6.332;2024-02-26T03:55:23;12.13;;;1.92;;
75639;SDS011;64233;51.486;6.332;2024-02-26T03:57:50;0.43;;;0.43;;
75639;SDS011;64233;51.486;6.332;2024-02-26T04:00:16;1.02;;;0.98;;
75639;SDS011;64233;51.486;6.332;2024-02-26T04:02:42;0.95;;;0.90;;
75639;SDS011;64233;51.486;6.332;2024-02-26T04:05:10;2.40;;;1.23;;
75639;SDS011;64233;51.486;6.332;2024-02-26T04:07:36;0.70;;;0.70;;
75639;SDS011;64233;51.486;6.332;2024-02-26T04:10:02;1.80;;;1.10;;
75639;SDS011;64233;51.486;6.332;2024-02-26T04:12:30;1.55;;;1.45;;
75639;SDS011;64233;51.486;6.332;2024-02-26T04:14:55;1.50;;;0.60;;
75639;SDS011;64233;51.486;6.332;2024-02-26T04:17:20;1.90;;;1.08;;
75639;SDS011;64233;51.486;6.332;2024-02-26T04:19:46;0.75;;;0.75;;
75639;SDS011;64233;51.486;6.332;2024-02-26T04:22:11;1.15;;;1.02;;
75639;SDS011;64233;51.486;6.332;2024-02-26T04:24:36;0.57;;;0.57;;
75639;SDS011;64233;51.486;6.332;2024-02-26T04:27:02;3.22;;;1.38;;
75639;SDS011;64233;51.486;6.332;2024-02-26T04:29:27;1.55;;;0.93;;
75639;SDS011;64233;51.486;6.332;2024-02-26T04:31:53;2.75;;;1.63;;
75639;SDS011;64233;51.486;6.332;2024-02-26T04:34:18;3.10;;;1.50;;
75639;SDS011;64233;51.486;6.332;2024-02-26T04:36:43;0.73;;;0.73;;
75639;SDS011;64233;51.486;6.332;2024-02-26T04:39:09;1.20;;;1.10;;
75639;SDS011;64233;51.486;6.332;2024-02-26T04:41:35;1.48;;;1.38;;
75639;SDS011;64233;51.486;6.332;2024-02-26T04:44:00;2.15;;;1.38;;
75639;SDS011;64233;51.486;6.332;2024-02-26T04:46:29;4.55;;;2.22;;
75639;SDS011;64233;51.486;6.332;2024-02-26T04:48:55;2.42;;;1.63;;
75639;SDS011;64233;51.486;6.332;2024-02-26T04:51:20;1.30;;;1.20;;
75639;SDS011;64233;51.486;6.332;2024-02-26T04:53:45;1.35;;;1.10;;
75639;SDS011;64233;51.486;6.332;2024-02-26T04:56:11;0.90;;;0.90;;
75639;SDS011;64233;51.486;6.332;2024-02-26T04:58:36;1.17;;;0.93;;
75639;SDS011;64233;51.486;6.332;2024-02-26T05:01:02;0.75;;;0.73;;
75639;SDS011;64233;51.486;6.332;2024-02-26T05:03:28;1.30;;;1.15;;
75639;SDS011;64233;51.486;6.332;2024-02-26T05:05:53;1.48;;;1.40;;
75639;SDS011;64233;51.486;6.332;2024-02-26T05:08:19;1.35;;;1.10;;
75639;SDS011;64233;51.486;6.332;2024-02-26T05:10:47;1.35;;;1.25;;
75639;SDS011;64233;51.486;6.332;2024-02-26T05:13:13;1.13;;;0.98;;
75639;SDS011;64233;51.486;6.332;2024-02-26T05:15:40;2.05;;;0.77;;
75639;SDS011;64233;51.486;6.332;2024-02-26T05:18:06;1.70;;;1.10;;
75639;SDS011;64233;51.486;6.332;2024-02-26T05:20:32;2.13;;;1.40;;
75639;SDS011;64233;51.486;6.332;2024-02-26T05:23:00;1.27;;;1.10;;
75639;SDS011;64233;51.486;6.332;2024-02-26T05:25:27;0.63;;;0.63;;
75639;SDS011;64233;51.486;6.332;2024-02-26T05:27:52;0.98;;;0.88;;
75639;SDS011;64233;51.486;6.332;2024-02-26T05:30:17;3.40;;;1.17;;
75639;SDS011;64233;51.486;6.332;2024-02-26T05:32:43;0.75;;;0.70;;
75639;SDS011;64233;51.486;6.332;2024-02-26T05:35:08;0.70;;;0.70;;
75639;SDS011;64233;51.486;6.332;2024-02-26T05:37:34;6.32;;;0.88;;
75639;SDS011;64233;51.486;6.332;2024-02-26T05:39:59;3.00;;;1.52;;
75639;SDS011;64233;51.486;6.332;2024-02-26T05:42:24;1.30;;;1.20;;
75639;SDS011;64233;51.486;6.332;2024-02-26T05:44:50;1.63;;;1.02;;
75639;SDS011;64233;51.486;6.332;2024-02-26T05:47:15;0.70;;;0.65;;
75639;SDS011;64233;51.486;6.332;2024-02-26T05:49:42;1.15;;;0.77;;
75639;SDS011;64233;51.486;6.332;2024-02-26T05:52:07;1.35;;;1.08;;
75639;SDS011;64233;51.486;6.332;2024-02-26T05:54:33;0.60;;;0.60;;
75639;SDS011;64233;51.486;6.332;2024-02-26T05:56:58;2.92;;;0.57;;
75639;SDS011;64233;51.486;6.332;2024-02-26T05:59:24;2.60;;;1.58;;
75639;SDS011;64233;51.486;6.332;2024-02-26T06:01:49;2.30;;;1.25;;
75639;SDS011;64233;51.486;6.332;2024-02-26T06:04:14;0.98;;;0.98;;
75639;SDS011;64233;51.486;6.332;2024-02-26T06:06:40;2.05;;;1.58;;
75639;SDS011;64233;51.486;6.332;2024-02-26T06:09:05;0.40;;;0.40;;
75639;SDS011;64233;51.486;6.332;2024-02-26T06:11:30;1.30;;;0.93;;
75639;SDS011;64233;51.486;6.332;2024-02-26T06:13:56;1.42;;;0.95;;
75639;SDS011;64233;51.486;6.332;2024-02-26T06:16:21;1.75;;;0.98;;
75639;SDS011;64233;51.486;6.332;2024-02-26T06:18:47;0.75;;;0.75;;
75639;SDS011;64233;51.486;6.332;2024-02-26T06:21:12;0.40;;;0.40;;
75639;SDS011;64233;51.486;6.332;2024-02-26T06:23:38;0.95;;;0.93;;
75639;SDS011;64233;51.486;6.332;2024-02-26T06:26:04;0.77;;;0.70;;
75639;SDS011;64233;51.486;6.332;2024-02-26T06:28:29;0.70;;;0.70;;
75639;SDS011;64233;51.486;6.332;2024-02-26T06:30:57;0.80;;;0.80;;
75639;SDS011;64233;51.486;6.332;2024-02-26T06:33:22;3.17;;;1.63;;
75639;SDS011;64233;51.486;6.332;2024-02-26T06:35:48;0.93;;;0.77;;
75639;SDS011;64233;51.486;6.332;2024-02-26T06:38:13;0.77;;;0.77;;
75639;SDS011;64233;51.486;6.332;2024-02-26T06:40:39;0.90;;;0.90;;
75639;SDS011;64233;51.486;6.332;2024-02-26T06:43:04;1.15;;;0.93;;
75639;SDS011;64233;51.486;6.332;2024-02-26T06:45:30;1.08;;;0.85;;
75639;SDS011;64233;51.486;6.332;2024-02-26T06:47:55;0.98;;;0.88;;
75639;SDS011;64233;51.486;6.332;2024-02-26T06:50:21;0.80;;;0.80;;
75639;SDS011;64233;51.486;6.332;2024-02-26T06:52:47;1.60;;;1.08;;
75639;SDS011;64233;51.486;6.332;2024-02-26T06:55:12;1.35;;;0.60;;
75639;SDS011;64233;51.486;6.332;2024-02-26T06:57:38;0.85;;;0.85;;
75639;SDS011;64233;51.486;6.332;2024-02-26T07:00:03;1.02;;;0.77;;
75639;SDS011;64233;51.486;6.332;2024-02-26T07:02:30;1.73;;;1.52;;
75639;SDS011;64233;51.486;6.332;2024-02-26T07:04:55;0.80;;;0.75;;
75639;SDS011;64233;51.486;6.332;2024-02-26T07:07:23;0.70;;;0.70;;
75639;SDS011;64233;51.486;6.332;2024-02-26T07:09:49;0.82;;;0.82;;
75639;SDS011;64233;51.486;6.332;2024-02-26T07:12:15;0.68;;;0.68;;
75639;SDS011;64233;51.486;6.332;2024-02-26T07:14:41;0.80;;;0.80;;
75639;SDS011;64233;51.486;6.332;2024-02-26T07:17:06;1.15;;;0.95;;
75639;SDS011;64233;51.486;6.332;2024-02-26T07:19:33;1.25;;;1.15;;
75639;SDS011;64233;51.486;6.332;2024-02-26T07:21:59;1.05;;;0.85;;
75639;SDS011;64233;51.486;6.332;2024-02-26T07:24:26;0.80;;;0.80;;
75639;SDS011;64233;51.486;6.332;2024-02-26T07:26:52;1.10;;;1.00;;
75639;SDS011;64233;51.486;6.332;2024-02-26T07:29:19;1.67;;;1.20;;
75639;SDS011;64233;51.486;6.332;2024-02-26T07:31:45;1.08;;;1.00;;
75639;SDS011;64233;51.486;6.332;2024-02-26T07:34:10;1.38;;;1.08;;
75639;SDS011;64233;51.486;6.332;2024-02-26T07:36:36;2.05;;;1.63;;
75639;SDS011;64233;51.486;6.332;2024-02-26T07:39:02;0.80;;;0.80;;
75639;SDS011;64233;51.486;6.332;2024-02-26T07:41:27;1.45;;;1.02;;
75639;SDS011;64233;51.486;6.332;2024-02-26T07:43:52;0.60;;;0.52;;
75639;SDS011;64233;51.486;6.332;2024-02-26T07:46:18;1.08;;;0.98;;
75639;SDS011;64233;51.486;6.332;2024-02-26T07:48:43;2.50;;;1.40;;
75639;SDS011;64233;51.486;6.332;2024-02-26T07:51:09;4.38;;;1.88;;
75639;SDS011;64233;51.486;6.332;2024-02-26T07:53:37;1.20;;;1.10;;
75639;SDS011;64233;51.486;6.332;2024-02-26T07:56:03;1.58;;;1.40;;
75639;SDS011;64233;51.486;6.332;2024-02-26T07:58:28;1.30;;;1.05;;
75639;SDS011;64233;51.486;6.332;2024-02-26T08:00:54;1.25;;;1.15;;
75639;SDS011;64233;51.486;6.332;2024-02-26T08:03:19;1.45;;;0.80;;
75639;SDS011;64233;51.486;6.332;2024-02-26T08:05:44;0.88;;;0.80;;
75639;SDS011;64233;51.486;6.332;2024-02-26T08:08:10;1.30;;;1.17;;
75639;SDS011;64233;51.486;6.332;2024-02-26T08:10:35;0.75;;;0.70;;
75639;SDS011;64233;51.486;6.332;2024-02-26T08:13:04;0.95;;;0.85;;
75639;SDS011;64233;51.486;6.332;2024-02-26T08:15:32;1.52;;;1.42;;
75639;SDS011;64233;51.486;6.332;2024-02-26T08:17:59;1.38;;;1.10;;
75639;SDS011;64233;51.486;6.332;2024-02-26T08:20:27;1.25;;;1.15;;
75639;SDS011;64233;51.486;6.332;2024-02-26T08:22:53;1.23;;;1.00;;
75639;SDS011;64233;51.486;6.332;2024-02-26T08:25:19;1.52;;;1.25;;
75639;SDS011;64233;51.486;6.332;2024-02-26T08:27:44;1.38;;;1.27;;
75639;SDS011;64233;51.486;6.332;2024-02-26T08:30:10;2.15;;;1.52;;
75639;SDS011;64233;51.486;6.332;2024-02-26T08:32:38;1.10;;;1.00;;
75639;SDS011;64233;51.486;6.332;2024-02-26T08:35:04;1.55;;;1.42;;
75639;SDS011;64233;51.486;6.332;2024-02-26T08:37:30;1.20;;;1.10;;
75639;SDS011;64233;51.486;6.332;2024-02-26T08:39:55;0.47;;;0.47;;
75639;SDS011;64233;51.486;6.332;2024-02-26T08:42:20;9.93;;;1.38;;
75639;SDS011;64233;51.486;6.332;2024-02-26T08:44:46;2.20;;;1.25;;
75639;SDS011;64233;51.486;6.332;2024-02-26T08:47:11;1.65;;;1.13;;
75639;SDS011;64233;51.486;6.332;2024-02-26T08:49:37;3.60;;;0.70;;
75639;SDS011;64233;51.486;6.332;2024-02-26T08:52:07;1.02;;;0.88;;
75639;SDS011;64233;51.486;6.332;2024-02-26T08:54:32;0.75;;;0.75;;
75639;SDS011;64233;51.486;6.332;2024-02-26T08:56:58;2.35;;;1.20;;
75639;SDS011;64233;51.486;6.332;2024-02-26T08:59:23;1.20;;;1.00;;
75639;SDS011;64233;51.486;6.332;2024-02-26T09:01:49;0.70;;;0.70;;
75639;SDS011;64233;51.486;6.332;2024-02-26T09:04:14;0.60;;;0.60;;
75639;SDS011;64233;51.486;6.332;2024-02-26T09:06:39;1.17;;;0.85;;
75639;SDS011;64233;51.486;6.332;2024-02-26T09:09:05;1.65;;;0.85;;
75639;SDS011;64233;51.486;6.332;2024-02-26T09:11:30;0.93;;;0.90;;
75639;SDS011;64233;51.486;6.332;2024-02-26T09:13:56;1.65;;;1.20;;
75639;SDS011;64233;51.486;6.332;2024-02-26T09:16:22;1.10;;;1.10;;
75639;SDS011;64233;51.486;6.332;2024-02-26T09:18:47;1.05;;;0.95;;
75639;SDS011;64233;51.486;6.332;2024-02-26T09:21:12;1.58;;;1.20;;
75639;SDS011;64233;51.486;6.332;2024-02-26T09:23:38;1.02;;;0.80;;
75639;SDS011;64233;51.486;6.332;2024-02-26T09:26:05;1.08;;;0.75;;
75639;SDS011;64233;51.486;6.332;2024-02-26T09:28:33;1.20;;;1.10;;
75639;SDS011;64233;51.486;6.332;2024-02-26T09:31:03;1.70;;;1.00;;
75639;SDS011;64233;51.486;6.332;2024-02-26T09:33:29;1.13;;;0.77;;
75639;SDS011;64233;51.486;6.332;2024-02-26T09:35:54;1.55;;;1.05;;
75639;SDS011;64233;51.486;6.332;2024-02-26T09:38:19;0.90;;;0.90;;
75639;SDS011;64233;51.486;6.332;2024-02-26T09:40:45;2.35;;;0.55;;
75639;SDS011;64233;51.486;6.332;2024-02-26T09:43:16;1.30;;;1.20;;
75639;SDS011;64233;51.486;6.332;2024-02-26T09:45:46;1.30;;;1.13;;
75639;SDS011;64233;51.486;6.332;2024-02-26T09:48:12;1.00;;;0.88;;
75639;SDS011;64233;51.486;6.332;2024-02-26T09:50:41;1.77;;;1.20;;
75639;SDS011;64233;51.486;6.332;2024-02-26T09:53:08;1.13;;;1.10;;
75639;SDS011;64233;51.486;6.332;2024-02-26T09:55:35;1.88;;;1.25;;
75639;SDS011;64233;51.486;6.332;2024-02-26T09:58:01;1.45;;;1.08;;
75639;SDS011;64233;51.486;6.332;2024-02-26T10:00:30;4.03;;;1.48;;
75639;SDS011;64233;51.486;6.332;2024-02-26T10:03:01;1.42;;;1.08;;
75639;SDS011;64233;51.486;6.332;2024-02-26T10:05:29;0.60;;;0.60;;
75639;SDS011;64233;51.486;6.332;2024-02-26T10:07:55;0.68;;;0.68;;
75639;SDS011;64233;51.486;6.332;2024-02-26T10:10:22;0.95;;;0.93;;
75639;SDS011;64233;51.486;6.332;2024-02-26T10:12:48;1.48;;;0.63;;
75639;SDS011;64233;51.486;6.332;2024-02-26T10:15:13;0.65;;;0.60;;
75639;SDS011;64233;51.486;6.332;2024-02-26T10:17:39;2.72;;;0.70;;
75639;SDS011;64233;51.486;6.332;2024-02-26T10:20:13;2.13;;;1.17;;
75639;SDS011;64233;51.486;6.332;2024-02-26T10:22:43;2.33;;;1.67;;
75639;SDS011;64233;51.486;6.332;2024-02-26T10:25:11;0.57;;;0.57;;
75639;SDS011;64233;51.486;6.332;2024-02-26T10:27:36;0.57;;;0.50;;
75639;SDS011;64233;51.486;6.332;2024-02-26T10:30:02;0.93;;;0.88;;
75639;SDS011;64233;51.486;6.332;2024-02-26T10:32:46;0.57;;;0.57;;
75639;SDS011;64233;51.486;6.332;2024-02-26T10:35:13;0.77;;;0.60;;
75639;SDS011;64233;51.486;6.332;2024-02-26T10:37:42;2.00;;;1.23;;
75639;SDS011;64233;51.486;6.332;2024-02-26T10:40:13;0.88;;;0.88;;
75639;SDS011;64233;51.486;6.332;2024-02-26T10:42:40;3.45;;;2.05;;
75639;SDS011;64233;51.486;6.332;2024-02-26T10:45:06;0.60;;;0.60;;
75639;SDS011;64233;51.486;6.332;2024-02-26T10:47:34;1.77;;;1.10;;
75639;SDS011;64233;51.486;6.332;2024-02-26T10:50:04;1.90;;;1.00;;
75639;SDS011;64233;51.486;6.332;2024-02-26T10:52:31;1.38;;;1.08;;
75639;SDS011;64233;51.486;6.332;2024-02-26T10:55:01;2.08;;;1.83;;
75639;SDS011;64233;51.486;6.332;2024-02-26T10:57:29;2.55;;;1.85;;
75639;SDS011;64233;51.486;6.332;2024-02-26T10:59:58;1.55;;;1.17;;
75639;SDS011;64233;51.486;6.332;2024-02-26T11:02:25;4.20;;;2.38;;
75639;SDS011;64233;51.486;6.332;2024-02-26T11:04:51;5.28;;;3.38;;
75639;SDS011;64233;51.486;6.332;2024-02-26T11:07:17;2.80;;;1.45;;
75639;SDS011;64233;51.486;6.332;2024-02-26T11:09:44;3.05;;;2.45;;
75639;SDS011;64233;51.486;6.332;2024-02-26T11:12:11;4.53;;;2.55;;
75639;SDS011;64233;51.486;6.332;2024-02-26T11:14:39;0.73;;;0.73;;
75639;SDS011;64233;51.486;6.332;2024-02-26T11:17:05;0.80;;;0.70;;
75639;SDS011;64233;51.486;6.332;2024-02-26T11:19:33;4.45;;;2.65;;
75639;SDS011;64233;51.486;6.332;2024-02-26T11:22:02;2.85;;;1.92;;
75639;SDS011;64233;51.486;6.332;2024-02-26T11:24:27;4.25;;;3.47;;
75639;SDS011;64233;51.486;6.332;2024-02-26T11:26:54;4.55;;;2.80;;
75639;SDS011;64233;51.486;6.332;2024-02-26T11:29:28;6.53;;;3.55;;
75639;SDS011;64233;51.486;6.332;2024-02-26T11:32:06;1.20;;;0.98;;
75639;SDS011;64233;51.486;6.332;2024-02-26T11:34:32;4.93;;;3.15;;
75639;SDS011;64233;51.486;6.332;2024-02-26T11:36:58;7.00;;;3.67;;
75639;SDS011;64233;51.486;6.332;2024-02-26T11:39:34;1.52;;;1.42;;
75639;SDS011;64233;51.486;6.332;2024-02-26T11:42:07;3.53;;;2.50;;
75639;SDS011;64233;51.486;6.332;2024-02-26T11:44:39;5.53;;;3.38;;
75639;SDS011;64233;51.486;6.332;2024-02-26T11:49:42;0.93;;;0.82;;
75639;SDS011;64233;51.486;6.332;2024-02-26T11:52:08;2.50;;;2.13;;
75639;SDS011;64233;51.486;6.332;2024-02-26T11:54:50;4.13;;;2.40;;
75639;SDS011;64233;51.486;6.332;2024-02-26T11:57:30;4.28;;;2.78;;
75639;SDS011;64233;51.486;6.332;2024-02-26T12:05:11;11.00;;;3.95;;
75639;SDS011;64233;51.486;6.332;2024-02-26T12:07:48;3.45;;;2.22;;
75639;SDS011;64233;51.486;6.332;2024-02-26T12:10:24;6.13;;;3.15;;
75639;SDS011;64233;51.486;6.332;2024-02-26T12:12:55;6.60;;;3.80;;
75639;SDS011;64233;51.486;6.332;2024-02-26T12:15:29;4.10;;;2.88;;
75639;SDS011;64233;51.486;6.332;2024-02-26T12:17:58;1.80;;;1.42;;
75639;SDS011;64233;51.486;6.332;2024-02-26T12:20:25;2.42;;;1.85;;
75639;SDS011;64233;51.486;6.332;2024-02-26T12:22:52;3.78;;;2.22;;
75639;SDS011;64233;51.486;6.332;2024-02-26T12:25:24;5.00;;;3.33;;
75639;SDS011;64233;51.486;6.332;2024-02-26T12:27:51;7.43;;;3.67;;
75639;SDS011;64233;51.486;6.332;2024-02-26T12:30:18;2.10;;;1.63;;
75639;SDS011;64233;51.486;6.332;2024-02-26T12:32:44;5.03;;;1.60;;
75639;SDS011;64233;51.486;6.332;2024-02-26T12:35:13;8.13;;;4.70;;
75639;SDS011;64233;51.486;6.332;2024-02-26T12:37:40;2.85;;;1.95;;
75639;SDS011;64233;51.486;6.332;2024-02-26T12:40:06;4.82;;;3.10;;
75639;SDS011;64233;51.486;6.332;2024-02-26T12:42:35;3.92;;;2.92;;
75639;SDS011;64233;51.486;6.332;2024-02-26T12:45:07;6.30;;;3.38;;
75639;SDS011;64233;51.486;6.332;2024-02-26T12:47:38;4.45;;;3.55;;
75639;SDS011;64233;51.486;6.332;2024-02-26T12:50:07;2.65;;;1.63;;
75639;SDS011;64233;51.486;6.332;2024-02-26T12:52:43;4.28;;;3.45;;
75639;SDS011;64233;51.486;6.332;2024-02-26T12:55:11;3.40;;;1.65;;
75639;SDS011;64233;51.486;6.332;2024-02-26T12:57:39;1.92;;;1.60;;
75639;SDS011;64233;51.486;6.332;2024-02-26T13:00:08;1.88;;;1.58;;
75639;SDS011;64233;51.486;6.332;2024-02-26T13:02:37;6.55;;;3.90;;
75639;SDS011;64233;51.486;6.332;2024-02-26T13:05:04;4.72;;;2.47;;
75639;SDS011;64233;51.486;6.332;2024-02-26T13:07:32;4.18;;;3.67;;
75639;SDS011;64233;51.486;6.332;2024-02-26T13:09:58;1.90;;;1.80;;
75639;SDS011;64233;51.486;6.332;2024-02-26T13:12:23;3.03;;;2.58;;
75639;SDS011;64233;51.486;6.332;2024-02-26T13:14:58;2.35;;;1.88;;
75639;SDS011;64233;51.486;6.332;2024-02-26T13:17:31;3.33;;;2.17;;
75639;SDS011;64233;51.486;6.332;2024-02-26T13:19:56;3.28;;;2.47;;
75639;SDS011;64233;51.486;6.332;2024-02-26T13:22:22;6.45;;;4.55;;
75639;SDS011;64233;51.486;6.332;2024-02-26T13:24:54;4.85;;;3.40;;
75639;SDS011;64233;51.486;6.332;2024-02-26T13:27:21;6.13;;;2.60;;
75639;SDS011;64233;51.486;6.332;2024-02-26T13:30:11;3.92;;;1.77;;
75639;SDS011;64233;51.486;6.332;2024-02-26T13:32:36;3.03;;;1.90;;
75639;SDS011;64233;51.486;6.332;2024-02-26T13:35:04;2.30;;;2.05;;
75639;SDS011;64233;51.486;6.332;2024-02-26T13:37:34;1.52;;;1.30;;
75639;SDS011;64233;51.486;6.332;2024-02-26T13:40:00;4.00;;;1.80;;
75639;SDS011;64233;51.486;6.332;2024-02-26T13:42:29;7.13;;;3.33;;
75639;SDS011;64233;51.486;6.332;2024-02-26T13:44:54;2.15;;;1.92;;
75639;SDS011;64233;51.486;6.332;2024-02-26T13:47:20;1.58;;;1.42;;
75639;SDS011;64233;51.486;6.332;2024-02-26T13:49:45;4.00;;;2.60;;
75639;SDS011;64233;51.486;6.332;2024-02-26T13:52:10;7.32;;;3.00;;
75639;SDS011;64233;51.486;6.332;2024-02-26T13:54:36;3.00;;;2.58;;
75639;SDS011;64233;51.486;6.332;2024-02-26T13:57:03;4.05;;;2.70;;
75639;SDS011;64233;51.486;6.332;2024-02-26T13:59:29;2.50;;;2.30;;
75639;SDS011;64233;51.486;6.332;2024-02-26T14:01:54;3.00;;;2.17;;
75639;SDS011;64233;51.486;6.332;2024-02-26T14:04:20;3.08;;;1.88;;
75639;SDS011;64233;51.486;6.332;2024-02-26T14:06:45;5.28;;;3.25;;
75639;SDS011;64233;51.486;6.332;2024-02-26T14:09:11;2.95;;;2.10;;
75639;SDS011;64233;51.486;6.332;2024-02-26T14:11:43;2.58;;;2.38;;
75639;SDS011;64233;51.486;6.332;2024-02-26T14:14:09;1.95;;;1.70;;
75639;SDS011;64233;51.486;6.332;2024-02-26T14:16:36;3.92;;;2.53;;
75639;SDS011;64233;51.486;6.332;2024-02-26T14:19:02;2.97;;;1.63;;
75639;SDS011;64233;51.486;6.332;2024-02-26T14:21:28;4.38;;;2.22;;
75639;SDS011;64233;51.486;6.332;2024-02-26T14:23:54;3.80;;;2.95;;
75639;SDS011;64233;51.486;6.332;2024-02-26T14:26:20;3.20;;;2.38;;
75639;SDS011;64233;51.486;6.332;2024-02-26T14:28:46;3.83;;;1.73;;
75639;SDS011;64233;51.486;6.332;2024-02-26T14:31:12;2.92;;;2.33;;
75639;SDS011;64233;51.486;6.332;2024-02-26T14:33:38;2.97;;;2.67;;
75639;SDS011;64233;51.486;6.332;2024-02-26T14:36:05;2.72;;;1.83;;
75639;SDS011;64233;51.486;6.332;2024-02-26T14:38:31;4.18;;;2.45;;
75639;SDS011;64233;51.486;6.332;2024-02-26T14:40:57;4.88;;;2.63;;
75639;SDS011;64233;51.486;6.332;2024-02-26T14:43:22;3.17;;;1.98;;
75639;SDS011;64233;51.486;6.332;2024-02-26T14:45:47;5.55;;;3.65;;
75639;SDS011;64233;51.486;6.332;2024-02-26T14:48:13;8.57;;;4.68;;
75639;SDS011;64233;51.486;6.332;2024-02-26T14:50:38;6.03;;;3.95;;
75639;SDS011;64233;51.486;6.332;2024-02-26T14:53:03;4.38;;;3.03;;